createdAt,value
2022-10-22T00:00:02.417Z,12.50
2022-10-22T00:01:02.140Z,12.49
2022-10-22T00:02:02.404Z,12.47
2022-10-22T00:03:02.179Z,12.47
2022-10-22T00:04:22.565Z,12.46
2022-10-22T00:05:02.465Z,12.46
2022-10-22T00:06:02.255Z,12.45
2022-10-22T00:07:01.998Z,12.42
2022-10-22T00:08:02.242Z,12.41
2022-10-22T00:09:02.047Z,12.38
2022-10-22T00:10:02.227Z,12.38
2022-10-22T00:11:01.966Z,12.38
2022-10-22T00:12:02.220Z,12.37
2022-10-22T00:13:01.960Z,12.37
2022-10-22T00:14:22.219Z,12.35
2022-10-22T00:15:01.949Z,12.32
2022-10-22T00:16:02.195Z,12.32
2022-10-22T00:17:02.430Z,12.32
2022-10-22T00:18:02.497Z,12.29
2022-10-22T00:19:01.977Z,12.29
2022-10-22T00:20:02.199Z,12.28
2022-10-22T00:21:01.947Z,12.29
2022-10-22T00:22:02.198Z,12.28
2022-10-22T00:23:01.947Z,12.27
2022-10-22T00:24:22.469Z,12.24
2022-10-22T00:25:01.952Z,12.21
2022-10-22T00:26:02.220Z,12.23
2022-10-22T00:27:01.942Z,12.19
2022-10-22T00:28:02.181Z,12.19
2022-10-22T00:29:01.921Z,12.19
2022-10-22T00:30:02.169Z,12.19
2022-10-22T00:31:01.903Z,12.16
2022-10-22T00:32:02.154Z,12.17
2022-10-22T00:33:01.915Z,12.14
2022-10-22T00:34:22.155Z,12.16
2022-10-22T00:35:01.901Z,12.13
2022-10-22T00:36:02.133Z,12.13
2022-10-22T00:37:02.784Z,12.12
2022-10-22T00:38:03.600Z,12.12
2022-10-22T00:39:01.906Z,12.12
2022-10-22T00:40:02.149Z,12.12
2022-10-22T00:42:01.654Z,12.12
2022-10-22T00:43:01.889Z,12.12
2022-10-22T00:44:23.604Z,12.12
2022-10-22T00:45:01.905Z,12.13
2022-10-22T00:46:01.651Z,12.13
2022-10-22T00:47:01.887Z,12.13
2022-10-22T00:48:02.329Z,12.16
2022-10-22T00:49:01.909Z,12.14
2022-10-22T00:50:01.645Z,12.14
2022-10-22T00:51:01.894Z,12.14
2022-10-22T00:52:01.628Z,12.16
2022-10-22T00:53:01.860Z,12.14
2022-10-22T00:54:21.619Z,12.16
2022-10-22T00:55:01.965Z,12.16
2022-10-22T00:56:01.746Z,12.16
2022-10-22T00:57:02.454Z,12.17
2022-10-22T00:58:01.798Z,12.17
2022-10-22T00:59:02.537Z,12.16
2022-10-22T01:00:11.004Z,12.16
2022-10-22T01:01:02.005Z,12.14
2022-10-22T01:02:01.516Z,12.14
2022-10-22T01:03:01.762Z,12.14
2022-10-22T01:04:21.563Z,12.14
2022-10-22T01:05:01.760Z,12.16
2022-10-22T01:06:01.510Z,12.16
2022-10-22T01:07:01.755Z,12.17
2022-10-22T01:08:01.641Z,12.14
2022-10-22T01:09:01.791Z,12.16
2022-10-22T01:10:01.489Z,12.14
2022-10-22T01:11:01.732Z,12.14
2022-10-22T01:12:01.497Z,12.13
2022-10-22T01:13:01.723Z,12.13
2022-10-22T01:14:21.485Z,12.12
2022-10-22T01:15:01.705Z,12.12
2022-10-22T01:16:01.451Z,12.12
2022-10-22T01:17:01.713Z,12.14
2022-10-22T01:18:01.462Z,12.12
2022-10-22T01:19:03.145Z,12.10
2022-10-22T01:20:01.913Z,12.13
2022-10-22T01:21:01.706Z,12.12
2022-10-22T01:22:01.445Z,12.10
2022-10-22T01:23:01.685Z,12.10
2022-10-22T01:24:22.315Z,12.12
2022-10-22T01:25:01.231Z,12.12
2022-10-22T01:26:01.501Z,12.09
2022-10-22T01:27:01.245Z,12.10
2022-10-22T01:28:01.497Z,12.10
2022-10-22T01:29:01.226Z,12.09
2022-10-22T01:30:01.479Z,12.09
2022-10-22T01:31:01.239Z,12.10
2022-10-22T01:32:01.473Z,12.12
2022-10-22T01:33:01.217Z,12.12
2022-10-22T01:34:21.859Z,12.12
2022-10-22T01:35:01.232Z,12.12
2022-10-22T01:36:01.467Z,12.12
2022-10-22T01:37:01.227Z,12.13
2022-10-22T01:38:01.483Z,12.13
2022-10-22T01:39:01.306Z,12.12
2022-10-22T01:40:02.919Z,12.13
2022-10-22T01:41:01.233Z,12.12
2022-10-22T01:42:01.478Z,12.10
2022-10-22T01:43:01.231Z,12.09
2022-10-22T01:44:21.555Z,12.09
2022-10-22T01:45:01.222Z,12.07
2022-10-22T01:46:01.486Z,12.05
2022-10-22T01:47:01.221Z,12.04
2022-10-22T01:48:01.448Z,12.02
2022-10-22T01:49:01.204Z,12.02
2022-10-22T01:50:01.444Z,11.99
2022-10-22T01:51:01.198Z,12.01
2022-10-22T01:52:01.422Z,11.98
2022-10-22T01:53:01.171Z,11.98
2022-10-22T01:54:21.440Z,11.98
2022-10-22T01:55:00.383Z,11.98
2022-10-22T01:56:01.131Z,11.95
2022-10-22T01:57:01.374Z,11.94
2022-10-22T01:58:01.115Z,11.94
2022-10-22T01:59:02.407Z,11.94
2022-10-22T02:00:02.117Z,11.90
2022-10-22T02:01:00.969Z,11.88
2022-10-22T02:02:01.162Z,11.88
2022-10-22T02:03:00.888Z,11.88
2022-10-22T02:04:21.135Z,11.88
2022-10-22T02:05:00.294Z,11.86
2022-10-22T02:06:01.035Z,11.83
2022-10-22T02:07:00.776Z,11.85
2022-10-22T02:08:01.074Z,11.85
2022-10-22T02:09:01.388Z,11.80
2022-10-22T02:10:01.122Z,11.79
2022-10-22T02:11:00.903Z,11.79
2022-10-22T02:12:01.210Z,11.79
2022-10-22T02:13:00.952Z,11.80
2022-10-22T02:14:21.216Z,11.79
2022-10-22T02:15:00.983Z,11.80
2022-10-22T02:16:00.754Z,11.79
2022-10-22T02:17:01.054Z,11.79
2022-10-22T02:18:02.254Z,11.80
2022-10-22T02:19:01.123Z,11.78
2022-10-22T02:20:02.323Z,11.79
2022-10-22T02:21:02.805Z,11.76
2022-10-22T02:22:00.965Z,11.76
2022-10-22T02:23:00.775Z,11.78
2022-10-22T02:24:21.035Z,11.78
2022-10-22T02:25:00.787Z,11.76
2022-10-22T02:26:01.026Z,11.75
2022-10-22T02:27:00.784Z,11.75
2022-10-22T02:28:01.056Z,11.73
2022-10-22T02:29:00.929Z,11.72
2022-10-22T02:30:00.704Z,11.72
2022-10-22T02:31:00.887Z,11.72
2022-10-22T02:32:00.667Z,11.70
2022-10-22T02:33:01.196Z,11.69
2022-10-22T02:34:20.702Z,11.67
2022-10-22T02:35:00.940Z,11.69
2022-10-22T02:36:00.788Z,11.67
2022-10-22T02:37:00.524Z,11.67
2022-10-22T02:38:00.772Z,11.67
2022-10-22T02:39:00.595Z,11.62
2022-10-22T02:40:00.940Z,11.62
2022-10-22T02:41:00.847Z,11.61
2022-10-22T02:42:01.198Z,11.62
2022-10-22T02:43:00.649Z,11.61
2022-10-22T02:44:20.893Z,11.62
2022-10-22T02:45:01.599Z,11.64
2022-10-22T02:46:00.390Z,11.64
2022-10-22T02:47:00.634Z,11.64
2022-10-22T02:48:01.827Z,11.62
2022-10-22T02:49:00.634Z,11.62
2022-10-22T02:50:00.386Z,11.60
2022-10-22T02:51:01.416Z,11.61
2022-10-22T02:52:00.376Z,11.61
2022-10-22T02:53:02.104Z,11.61
2022-10-22T02:54:20.434Z,11.62
2022-10-22T02:55:01.366Z,11.62
2022-10-22T02:56:01.935Z,11.62
2022-10-22T02:57:02.259Z,11.62
2022-10-22T02:58:02.009Z,11.61
2022-10-22T02:59:01.792Z,11.62
2022-10-22T03:00:02.093Z,11.61
2022-10-22T03:01:01.405Z,11.61
2022-10-22T03:02:02.205Z,11.60
2022-10-22T03:03:00.626Z,11.61
2022-10-22T03:04:20.360Z,11.64
2022-10-22T03:05:01.173Z,11.62
2022-10-22T03:06:00.880Z,11.64
2022-10-22T03:07:01.761Z,11.62
2022-10-22T03:08:02.049Z,11.62
2022-10-22T03:09:01.405Z,11.62
2022-10-22T03:10:01.631Z,11.65
2022-10-22T03:11:01.903Z,11.67
2022-10-22T03:12:00.878Z,11.70
2022-10-22T03:13:01.956Z,11.70
2022-10-22T03:14:20.275Z,11.72
2022-10-22T03:15:01.978Z,11.72
2022-10-22T03:16:01.761Z,11.73
2022-10-22T03:17:00.887Z,11.75
2022-10-22T03:18:01.863Z,11.76
2022-10-22T03:19:01.643Z,11.78
2022-10-22T03:20:01.930Z,11.80
2022-10-22T03:21:00.980Z,11.82
2022-10-22T03:22:01.533Z,11.85
2022-10-22T03:23:00.883Z,11.85
2022-10-22T03:24:20.141Z,11.86
2022-10-22T03:25:01.855Z,11.86
2022-10-22T03:26:01.647Z,11.90
2022-10-22T03:27:01.916Z,11.95
2022-10-22T03:28:01.712Z,11.99
2022-10-22T03:29:00.910Z,12.04
2022-10-22T03:30:01.763Z,12.05
2022-10-22T03:31:00.778Z,12.09
2022-10-22T03:32:00.405Z,12.20
2022-10-22T03:33:01.591Z,12.28
2022-10-22T03:34:20.407Z,12.35
2022-10-22T03:35:59.955Z,12.45
2022-10-22T03:37:01.683Z,12.47
2022-10-22T03:38:01.475Z,12.47
2022-10-22T03:39:01.756Z,12.47
2022-10-22T03:40:01.544Z,12.57
2022-10-22T03:41:01.314Z,12.62
2022-10-22T03:42:01.118Z,12.62
2022-10-22T03:43:00.630Z,12.70
2022-10-22T03:44:20.207Z,12.78
2022-10-22T03:45:00.907Z,12.78
2022-10-22T03:46:00.932Z,12.82
2022-10-22T03:47:02.750Z,12.90
2022-10-22T03:48:00.771Z,12.93
2022-10-22T03:49:01.556Z,12.97
2022-10-22T03:50:01.382Z,13.05
2022-10-22T03:51:00.426Z,13.12
2022-10-22T03:52:00.408Z,13.15
2022-10-22T03:53:01.251Z,13.17
2022-10-22T03:54:20.065Z,13.17
2022-10-22T03:55:01.258Z,13.14
2022-10-22T03:56:01.034Z,13.19
2022-10-22T03:57:01.298Z,13.22
2022-10-22T03:58:00.159Z,13.26
2022-10-22T03:59:01.356Z,13.32
2022-10-22T04:00:01.157Z,13.38
2022-10-22T04:01:01.510Z,13.39
2022-10-22T04:02:01.218Z,13.41
2022-10-22T04:03:01.514Z,13.45
2022-10-22T04:04:19.842Z,13.45
2022-10-22T04:05:01.636Z,13.49
2022-10-22T04:06:01.381Z,13.54
2022-10-22T04:07:01.174Z,13.59
2022-10-22T04:08:01.446Z,13.57
2022-10-22T04:09:01.287Z,13.55
2022-10-22T04:10:00.435Z,13.54
2022-10-22T04:11:00.551Z,13.54
2022-10-22T04:12:01.093Z,13.54
2022-10-22T04:13:01.359Z,13.57
2022-10-22T04:14:19.696Z,13.60
2022-10-22T04:15:01.394Z,13.59
2022-10-22T04:16:00.417Z,13.59
2022-10-22T04:17:00.487Z,13.59
2022-10-22T04:18:01.266Z,13.57
2022-10-22T04:19:01.055Z,13.57
2022-10-22T04:20:01.362Z,13.59
2022-10-22T04:21:01.170Z,13.64
2022-10-22T04:22:00.452Z,13.69
2022-10-22T04:23:01.233Z,13.73
2022-10-22T04:24:19.579Z,13.77
2022-10-22T04:25:01.278Z,13.78
2022-10-22T04:26:00.589Z,13.77
2022-10-22T04:27:00.368Z,13.73
2022-10-22T04:28:01.163Z,13.75
2022-10-22T04:29:00.950Z,13.77
2022-10-22T04:29:59.821Z,13.75
2022-10-22T04:31:01.042Z,13.75
2022-10-22T04:32:00.829Z,13.71
2022-10-22T04:33:00.439Z,13.70
2022-10-22T04:34:19.419Z,13.70
2022-10-22T04:35:01.134Z,13.71
2022-10-22T04:36:00.905Z,13.73
2022-10-22T04:37:01.230Z,13.79
2022-10-22T04:37:59.970Z,13.82
2022-10-22T04:39:00.777Z,13.85
2022-10-22T04:40:01.086Z,13.82
2022-10-22T04:40:59.474Z,13.81
2022-10-22T04:42:01.140Z,13.79
2022-10-22T04:43:00.931Z,13.82
2022-10-22T04:44:19.760Z,13.82
2022-10-22T04:45:00.474Z,13.81
2022-10-22T04:45:59.983Z,13.82
2022-10-22T04:47:01.080Z,13.81
2022-10-22T04:48:00.852Z,13.85
2022-10-22T04:49:00.648Z,13.84
2022-10-22T04:49:59.949Z,13.87
2022-10-22T04:51:00.698Z,13.87
2022-10-22T04:52:00.995Z,13.89
2022-10-22T04:53:00.770Z,13.92
2022-10-22T04:54:19.585Z,13.92
2022-10-22T04:54:59.958Z,13.92
2022-10-22T04:56:00.575Z,13.88
2022-10-22T04:57:00.849Z,13.87
2022-10-22T04:58:00.646Z,13.88
2022-10-22T04:59:00.426Z,13.88
2022-10-22T05:00:00.685Z,13.87
2022-10-22T05:01:00.004Z,13.85
2022-10-22T05:02:00.737Z,13.84
2022-10-22T05:03:00.601Z,13.87
2022-10-22T05:04:19.406Z,13.91
2022-10-22T05:05:00.628Z,13.91
2022-10-22T05:05:59.983Z,13.92
2022-10-22T05:06:59.916Z,13.91
2022-10-22T05:08:00.526Z,13.92
2022-10-22T05:09:00.833Z,13.92
2022-10-22T05:10:00.607Z,13.92
2022-10-22T05:11:00.386Z,13.92
2022-10-22T05:11:59.962Z,13.95
2022-10-22T05:13:00.460Z,13.95
2022-10-22T05:14:19.289Z,13.96
2022-10-22T05:15:00.498Z,13.97
2022-10-22T05:16:00.295Z,13.99
2022-10-22T05:16:59.798Z,14.02
2022-10-22T05:17:59.870Z,14.02
2022-10-22T05:19:00.664Z,14.04
2022-10-22T05:20:00.447Z,14.03
2022-10-22T05:20:59.326Z,14.07
2022-10-22T05:22:00.483Z,14.07
2022-10-22T05:22:59.482Z,14.07
2022-10-22T05:24:20.621Z,14.10
2022-10-22T05:25:00.367Z,14.12
2022-10-22T05:26:00.630Z,14.14
2022-10-22T05:26:59.007Z,14.14
2022-10-22T05:28:00.300Z,14.15
2022-10-22T05:28:59.985Z,14.17
2022-10-22T05:29:59.492Z,14.15
2022-10-22T05:31:00.534Z,14.15
2022-10-22T05:31:59.547Z,14.15
2022-10-22T05:33:00.592Z,14.17
2022-10-22T05:34:18.915Z,14.15
2022-10-22T05:35:00.120Z,14.17
2022-10-22T05:35:59.475Z,14.17
2022-10-22T05:37:00.172Z,14.17
2022-10-22T05:37:59.081Z,14.17
2022-10-22T05:39:00.299Z,14.17
2022-10-22T05:40:12.410Z,14.15
2022-10-22T05:41:00.516Z,14.18
2022-10-22T05:41:58.744Z,14.20
2022-10-22T05:43:00.406Z,14.20
2022-10-22T05:44:18.736Z,14.18
2022-10-22T05:45:00.456Z,14.18
2022-10-22T05:46:00.239Z,14.18
2022-10-22T05:46:59.500Z,14.18
2022-10-22T05:48:00.301Z,14.17
2022-10-22T05:49:00.125Z,14.15
2022-10-22T05:50:00.427Z,14.14
2022-10-22T05:51:00.211Z,14.14
2022-10-22T05:51:59.492Z,14.14
2022-10-22T05:52:59.515Z,14.10
2022-10-22T05:54:18.659Z,14.12
2022-10-22T05:55:02.405Z,14.14
2022-10-22T05:55:59.694Z,14.14
2022-10-22T05:56:59.274Z,14.15
2022-10-22T05:57:59.837Z,14.12
2022-10-22T05:58:59.621Z,14.12
2022-10-22T06:00:00.428Z,14.12
2022-10-22T06:01:00.222Z,14.10
2022-10-22T06:02:00.136Z,14.10
2022-10-22T06:02:59.831Z,14.09
2022-10-22T06:04:18.662Z,14.09
2022-10-22T06:04:59.428Z,14.10
2022-10-22T06:06:00.240Z,14.07
2022-10-22T06:06:59.240Z,14.07
2022-10-22T06:07:59.770Z,14.09
2022-10-22T06:09:00.117Z,14.07
2022-10-22T06:09:59.063Z,14.09
2022-10-22T06:11:00.259Z,14.09
2022-10-22T06:11:58.611Z,14.07
2022-10-22T06:12:59.375Z,14.06
2022-10-22T06:14:18.663Z,14.04
2022-10-22T06:14:59.923Z,14.06
2022-10-22T06:15:59.012Z,14.04
2022-10-22T06:16:59.217Z,14.03
2022-10-22T06:17:59.832Z,14.03
2022-10-22T06:19:00.113Z,14.04
2022-10-22T06:19:59.946Z,14.03
2022-10-22T06:20:59.675Z,14.03
2022-10-22T06:22:00.081Z,14.03
2022-10-22T06:22:59.315Z,14.03
2022-10-22T06:24:18.658Z,14.04
2022-10-22T06:24:59.174Z,14.04
2022-10-22T06:25:59.470Z,14.04
2022-10-22T06:26:58.327Z,14.09
2022-10-22T06:27:58.676Z,14.10
2022-10-22T06:28:58.409Z,14.12
2022-10-22T06:29:58.222Z,14.15
2022-10-22T06:30:58.481Z,14.18
2022-10-22T06:31:58.273Z,14.22
2022-10-22T06:32:58.514Z,14.22
2022-10-22T06:34:18.298Z,14.25
2022-10-22T06:34:58.565Z,14.27
2022-10-22T06:35:58.279Z,14.29
2022-10-22T06:36:58.005Z,14.29
2022-10-22T06:37:58.260Z,14.33
2022-10-22T06:38:57.992Z,14.35
2022-10-22T06:39:58.267Z,14.35
2022-10-22T06:40:58.002Z,14.36
2022-10-22T06:41:58.251Z,14.36
2022-10-22T06:42:57.979Z,14.37
2022-10-22T06:44:18.329Z,14.39
2022-10-22T06:44:58.117Z,14.37
2022-10-22T06:45:59.044Z,14.39
2022-10-22T06:46:58.290Z,14.39
2022-10-22T06:47:58.314Z,14.40
2022-10-22T06:48:58.050Z,14.45
2022-10-22T06:49:58.293Z,14.45
2022-10-22T06:50:58.042Z,14.46
2022-10-22T06:51:58.284Z,14.46
2022-10-22T06:52:58.033Z,14.51
2022-10-22T06:54:19.770Z,14.52
2022-10-22T06:54:58.287Z,14.52
2022-10-22T06:55:58.076Z,14.54
2022-10-22T06:56:57.807Z,14.57
2022-10-22T06:57:58.057Z,14.57
2022-10-22T06:58:57.793Z,14.60
2022-10-22T06:59:58.093Z,14.60
2022-10-22T07:00:57.887Z,14.61
2022-10-22T07:01:58.577Z,14.62
2022-10-22T07:03:07.189Z,14.62
2022-10-22T07:04:19.594Z,14.64
2022-10-22T07:04:57.889Z,14.65
2022-10-22T07:05:58.481Z,14.68
2022-10-22T07:06:58.160Z,14.68
2022-10-22T07:07:57.972Z,14.69
2022-10-22T07:08:58.382Z,14.70
2022-10-22T07:09:57.969Z,14.73
2022-10-22T07:10:57.701Z,14.75
2022-10-22T07:11:58.010Z,14.81
2022-10-22T07:12:58.043Z,14.88
2022-10-22T07:14:18.584Z,14.94
2022-10-22T07:14:59.577Z,14.98
2022-10-22T07:15:59.423Z,15.02
2022-10-22T07:16:59.436Z,15.07
2022-10-22T07:17:59.243Z,15.11
2022-10-22T07:18:59.520Z,15.17
2022-10-22T07:19:58.572Z,15.20
2022-10-22T07:20:59.201Z,15.21
2022-10-22T07:21:59.522Z,15.23
2022-10-22T07:22:59.347Z,15.25
2022-10-22T07:24:17.657Z,15.25
2022-10-22T07:24:59.977Z,15.25
2022-10-22T07:25:58.579Z,15.25
2022-10-22T07:26:59.065Z,15.29
2022-10-22T07:27:59.430Z,15.32
2022-10-22T07:28:59.211Z,15.35
2022-10-22T07:29:59.049Z,15.38
2022-10-22T07:30:59.354Z,15.39
2022-10-22T07:31:58.685Z,15.41
2022-10-22T07:32:59.029Z,15.41
2022-10-22T07:34:17.855Z,15.43
2022-10-22T07:34:59.111Z,15.44
2022-10-22T07:35:58.921Z,15.44
2022-10-22T07:36:59.256Z,15.47
2022-10-22T07:37:58.549Z,15.50
2022-10-22T07:38:58.915Z,15.50
2022-10-22T07:40:02.899Z,15.53
2022-10-22T07:40:59.987Z,15.51
2022-10-22T07:41:59.280Z,15.51
2022-10-22T07:42:59.113Z,15.51
2022-10-22T07:44:17.439Z,15.49
2022-10-22T07:44:59.180Z,15.51
2022-10-22T07:45:58.953Z,15.54
2022-10-22T07:46:59.256Z,15.51
2022-10-22T07:47:59.046Z,15.51
2022-10-22T07:48:59.391Z,15.54
2022-10-22T07:49:58.084Z,15.56
2022-10-22T07:50:58.585Z,15.57
2022-10-22T07:51:58.913Z,15.59
2022-10-22T07:52:59.215Z,15.59
2022-10-22T07:54:16.792Z,15.60
2022-10-22T07:54:58.097Z,15.60
2022-10-22T07:55:58.842Z,15.62
2022-10-22T07:56:58.604Z,15.62
2022-10-22T07:57:58.936Z,15.62
2022-10-22T07:58:58.803Z,15.62
2022-10-22T07:59:59.981Z,15.65
2022-10-22T08:00:58.123Z,15.67
2022-10-22T08:01:58.673Z,15.67
2022-10-22T08:02:58.994Z,15.69
2022-10-22T08:04:17.283Z,15.68
2022-10-22T08:04:59.085Z,15.68
2022-10-22T08:05:58.115Z,15.69
2022-10-22T08:06:58.096Z,15.67
2022-10-22T08:07:59.085Z,15.67
2022-10-22T08:08:58.854Z,15.65
2022-10-22T08:09:58.605Z,15.68
2022-10-22T08:10:58.962Z,15.72
2022-10-22T08:11:58.853Z,15.76
2022-10-22T08:12:58.117Z,15.75
2022-10-22T08:14:18.970Z,15.93
2022-10-22T08:14:58.836Z,15.96
2022-10-22T08:15:58.598Z,16.09
2022-10-22T08:16:58.923Z,16.35
2022-10-22T08:17:58.191Z,16.71
2022-10-22T08:18:58.100Z,17.00
2022-10-22T08:19:58.790Z,17.52
2022-10-22T08:20:58.585Z,18.07
2022-10-22T08:21:58.895Z,18.80
2022-10-22T08:22:58.805Z,19.66
2022-10-22T08:24:17.063Z,20.31
2022-10-22T08:24:58.801Z,20.17
2022-10-22T08:25:58.664Z,20.21
2022-10-22T08:26:58.508Z,21.22
2022-10-22T08:27:58.836Z,22.20
2022-10-22T08:28:58.142Z,22.61
2022-10-22T08:29:57.612Z,23.01
2022-10-22T08:30:58.052Z,23.63
2022-10-22T08:31:57.922Z,23.28
2022-10-22T08:32:58.243Z,23.20
2022-10-22T08:34:18.500Z,24.08
2022-10-22T08:34:57.814Z,24.61
2022-10-22T08:35:57.631Z,24.64
2022-10-22T08:36:58.384Z,24.08
2022-10-22T08:37:58.703Z,23.10
2022-10-22T08:38:58.554Z,22.46
2022-10-22T08:39:58.338Z,21.96
2022-10-22T08:40:58.631Z,21.32
2022-10-22T08:41:58.444Z,20.82
2022-10-22T08:42:58.288Z,20.26
2022-10-22T08:44:17.099Z,19.88
2022-10-22T08:44:58.384Z,19.71
2022-10-22T08:45:57.416Z,19.56
2022-10-22T08:46:58.516Z,19.32
2022-10-22T08:47:57.616Z,19.25
2022-10-22T08:48:58.682Z,19.28
2022-10-22T08:49:58.420Z,19.41
2022-10-22T08:50:58.220Z,19.58
2022-10-22T08:51:58.558Z,19.76
2022-10-22T08:52:58.358Z,19.68
2022-10-22T08:54:17.171Z,19.55
2022-10-22T08:54:58.391Z,19.51
2022-10-22T08:55:58.184Z,19.37
2022-10-22T08:56:58.001Z,19.40
2022-10-22T08:57:58.277Z,19.59
2022-10-22T08:58:58.125Z,20.43
2022-10-22T08:59:57.631Z,20.64
2022-10-22T09:00:58.265Z,20.72
2022-10-22T09:01:58.036Z,20.54
2022-10-22T09:02:58.807Z,20.36
2022-10-22T09:04:16.627Z,20.14
2022-10-22T09:04:58.353Z,20.02
2022-10-22T09:05:58.169Z,19.87
2022-10-22T09:06:58.513Z,19.80
2022-10-22T09:07:58.361Z,19.66
2022-10-22T09:08:58.187Z,19.50
2022-10-22T09:09:57.985Z,19.44
2022-10-22T09:10:57.967Z,19.37
2022-10-22T09:11:57.633Z,19.22
2022-10-22T09:12:58.053Z,19.10
2022-10-22T09:14:16.881Z,18.98
2022-10-22T09:14:58.167Z,18.92
2022-10-22T09:15:57.990Z,18.85
2022-10-22T09:16:58.887Z,18.85
2022-10-22T09:17:57.130Z,18.91
2022-10-22T09:18:57.966Z,18.87
2022-10-22T09:19:58.271Z,18.76
2022-10-22T09:20:58.068Z,18.69
2022-10-22T09:21:57.965Z,18.62
2022-10-22T09:22:58.289Z,18.57
2022-10-22T09:24:16.613Z,18.57
2022-10-22T09:24:58.354Z,18.66
2022-10-22T09:25:57.370Z,18.75
2022-10-22T09:26:57.933Z,18.90
2022-10-22T09:27:58.282Z,18.95
2022-10-22T09:28:58.054Z,19.08
2022-10-22T09:29:57.846Z,19.46
2022-10-22T09:31:57.996Z,20.21
2022-10-22T09:32:57.792Z,20.62
2022-10-22T09:34:16.666Z,21.37
2022-10-22T09:34:57.868Z,22.10
2022-10-22T09:35:57.664Z,22.03
2022-10-22T09:36:57.475Z,21.77
2022-10-22T09:37:57.759Z,21.53
2022-10-22T09:38:57.584Z,21.19
2022-10-22T09:39:57.865Z,20.67
2022-10-22T09:40:57.162Z,20.33
2022-10-22T09:41:57.540Z,19.96
2022-10-22T09:42:57.834Z,19.69
2022-10-22T09:44:16.197Z,19.39
2022-10-22T09:44:57.888Z,19.26
2022-10-22T09:45:57.147Z,19.10
2022-10-22T09:46:57.154Z,19.02
2022-10-22T09:48:01.954Z,19.06
2022-10-22T09:48:57.895Z,19.26
2022-10-22T09:49:56.209Z,19.13
2022-10-22T09:50:57.903Z,18.99
2022-10-22T09:51:57.749Z,18.88
2022-10-22T09:52:57.546Z,18.82
2022-10-22T09:54:16.370Z,18.80
2022-10-22T09:54:57.567Z,18.69
2022-10-22T09:55:57.879Z,18.66
2022-10-22T09:56:57.695Z,18.63
2022-10-22T09:57:56.665Z,18.60
2022-10-22T09:58:57.825Z,18.54
2022-10-22T09:59:57.605Z,18.52
2022-10-22T10:00:57.435Z,18.50
2022-10-22T10:02:04.970Z,18.44
2022-10-22T10:02:58.045Z,18.39
2022-10-22T10:04:16.379Z,18.32
2022-10-22T10:04:56.775Z,18.29
2022-10-22T10:06:00.184Z,18.26
2022-10-22T10:06:58.157Z,18.26
2022-10-22T10:07:57.448Z,18.26
2022-10-22T10:08:56.695Z,18.23
2022-10-22T10:09:57.100Z,18.23
2022-10-22T10:10:57.374Z,18.21
2022-10-22T10:11:57.680Z,18.17
2022-10-22T10:12:57.520Z,18.15
2022-10-22T10:14:16.334Z,18.15
2022-10-22T10:14:57.557Z,18.14
2022-10-22T10:15:57.351Z,18.11
2022-10-22T10:16:57.665Z,18.08
2022-10-22T10:17:57.472Z,18.11
2022-10-22T10:18:57.298Z,18.11
2022-10-22T10:20:00.060Z,18.14
2022-10-22T10:20:56.966Z,18.12
2022-10-22T10:21:55.712Z,18.12
2022-10-22T10:22:55.953Z,18.15
2022-10-22T10:24:17.247Z,18.14
2022-10-22T10:24:57.223Z,18.17
2022-10-22T10:25:55.947Z,18.15
2022-10-22T10:26:57.400Z,18.15
2022-10-22T10:27:55.705Z,18.14
2022-10-22T10:28:55.920Z,18.17
2022-10-22T10:29:55.690Z,18.20
2022-10-22T10:30:55.929Z,18.30
2022-10-22T10:31:55.694Z,18.44
2022-10-22T10:32:55.965Z,18.52
2022-10-22T10:34:16.110Z,18.62
2022-10-22T10:34:55.871Z,18.62
2022-10-22T10:35:55.636Z,18.60
2022-10-22T10:36:55.875Z,18.57
2022-10-22T10:37:55.653Z,18.52
2022-10-22T10:38:55.915Z,18.48
2022-10-22T10:39:55.678Z,18.47
2022-10-22T10:40:55.941Z,18.47
2022-10-22T10:41:55.701Z,18.42
2022-10-22T10:42:55.949Z,18.42
2022-10-22T10:44:15.784Z,18.39
2022-10-22T10:44:56.056Z,18.36
2022-10-22T10:45:56.031Z,18.35
2022-10-22T10:46:56.917Z,18.29
2022-10-22T10:47:55.822Z,18.29
2022-10-22T10:48:55.568Z,18.27
2022-10-22T10:49:55.837Z,18.33
2022-10-22T10:50:55.595Z,18.41
2022-10-22T10:51:55.861Z,18.47
2022-10-22T10:52:55.759Z,18.52
2022-10-22T10:54:15.577Z,18.90
2022-10-22T10:54:55.825Z,19.02
2022-10-22T10:55:55.601Z,19.04
2022-10-22T10:56:55.845Z,18.90
2022-10-22T10:57:55.628Z,18.87
2022-10-22T10:58:55.386Z,18.85
2022-10-22T10:59:55.653Z,18.88
2022-10-22T11:00:55.392Z,18.98
2022-10-22T11:01:55.745Z,19.04
2022-10-22T11:04:15.681Z,19.39
2022-10-22T11:04:55.720Z,19.41
2022-10-22T11:05:56.915Z,19.51
2022-10-22T11:07:10.632Z,19.48
2022-10-22T11:07:56.452Z,19.66
2022-10-22T11:09:01.500Z,20.55
2022-10-22T11:09:55.264Z,22.17
2022-10-22T11:10:55.524Z,22.18
2022-10-22T11:11:55.278Z,23.01
2022-10-22T11:12:56.228Z,22.58
2022-10-22T11:14:32.748Z,23.43
2022-10-22T11:15:00.398Z,23.97
2022-10-22T11:16:07.661Z,24.43
2022-10-22T11:16:55.545Z,24.20
2022-10-22T11:18:24.806Z,24.68
2022-10-22T11:18:55.532Z,24.96
2022-10-22T11:19:59.948Z,24.88
2022-10-22T11:20:57.027Z,25.52
2022-10-22T11:21:55.954Z,25.27
2022-10-22T11:23:18.228Z,25.20
2022-10-22T11:24:16.382Z,25.70
2022-10-22T11:24:55.116Z,25.60
2022-10-22T11:25:55.357Z,25.51
2022-10-22T11:26:55.116Z,25.21
2022-10-22T11:28:03.275Z,25.20
2022-10-22T11:28:56.121Z,24.90
2022-10-22T11:29:55.392Z,24.32
2022-10-22T11:30:55.139Z,23.66
2022-10-22T11:31:55.456Z,23.22
2022-10-22T11:32:55.218Z,23.12
2022-10-22T11:34:47.983Z,23.84
2022-10-22T11:35:36.758Z,24.67
2022-10-22T11:35:54.762Z,25.23
2022-10-22T11:36:55.019Z,24.43
2022-10-22T11:37:55.299Z,23.80
2022-10-22T11:38:55.024Z,23.32
2022-10-22T11:39:56.713Z,22.83
2022-10-22T11:40:55.723Z,22.47
2022-10-22T11:41:55.308Z,22.09
2022-10-22T11:42:55.079Z,21.75
2022-10-22T11:44:15.391Z,21.35
2022-10-22T11:44:54.354Z,21.13
2022-10-22T11:45:55.107Z,21.03
2022-10-22T11:46:55.380Z,21.01
2022-10-22T11:47:55.123Z,21.69
2022-10-22T11:48:54.875Z,21.96
2022-10-22T11:49:55.186Z,21.88
2022-10-22T11:51:34.934Z,22.80
2022-10-22T11:51:55.255Z,23.75
2022-10-22T11:52:55.024Z,24.05
2022-10-22T11:54:15.288Z,23.88
2022-10-22T11:54:55.043Z,23.54
2022-10-22T11:55:54.786Z,23.09
2022-10-22T11:56:55.029Z,22.91
2022-10-22T11:57:54.783Z,22.79
2022-10-22T11:58:55.124Z,22.76
2022-10-22T11:59:54.819Z,22.85
2022-10-22T12:00:56.523Z,22.83
2022-10-22T12:01:56.353Z,22.67
2022-10-22T12:02:55.100Z,22.46
2022-10-22T12:04:15.850Z,22.14
2022-10-22T12:04:55.213Z,21.90
2022-10-22T12:05:54.914Z,21.65
2022-10-22T12:06:54.681Z,21.46
2022-10-22T12:07:54.919Z,21.34
2022-10-22T12:08:54.929Z,21.13
2022-10-22T12:09:55.925Z,21.06
2022-10-22T12:10:54.693Z,21.01
2022-10-22T12:11:54.950Z,20.99
2022-10-22T12:12:54.722Z,20.84
2022-10-22T12:14:16.047Z,20.70
2022-10-22T12:14:54.041Z,20.58
2022-10-22T12:15:56.293Z,20.50
2022-10-22T12:16:56.930Z,20.38
2022-10-22T12:17:54.810Z,20.33
2022-10-22T12:18:54.664Z,20.33
2022-10-22T12:19:57.434Z,20.26
2022-10-22T12:20:54.684Z,20.28
2022-10-22T12:21:54.933Z,20.38
2022-10-22T12:22:54.683Z,20.26
2022-10-22T12:24:14.965Z,20.18
2022-10-22T12:24:53.962Z,20.18
2022-10-22T12:25:54.714Z,20.11
2022-10-22T12:26:54.520Z,20.05
2022-10-22T12:27:54.769Z,19.95
2022-10-22T12:28:55.965Z,19.91
2022-10-22T12:29:55.469Z,19.80
2022-10-22T12:30:54.665Z,19.76
2022-10-22T12:31:54.805Z,19.71
2022-10-22T12:32:54.626Z,19.69
2022-10-22T12:34:14.891Z,19.74
2022-10-22T12:34:55.615Z,19.77
2022-10-22T12:35:55.392Z,19.84
2022-10-22T12:36:56.220Z,19.92
2022-10-22T12:37:54.644Z,19.98
2022-10-22T12:38:55.045Z,20.01
2022-10-22T12:39:55.271Z,19.98
2022-10-22T12:40:55.445Z,20.01
2022-10-22T12:41:54.974Z,19.96
2022-10-22T12:42:56.070Z,19.95
2022-10-22T12:44:14.914Z,19.94
2022-10-22T12:44:55.270Z,19.92
2022-10-22T12:45:55.269Z,19.91
2022-10-22T12:46:57.057Z,19.88
2022-10-22T12:47:55.273Z,19.87
2022-10-22T12:48:55.888Z,19.83
2022-10-22T12:49:55.669Z,19.77
2022-10-22T12:50:55.987Z,19.74
2022-10-22T12:51:55.811Z,19.73
2022-10-22T12:52:56.483Z,19.66
2022-10-22T12:54:14.223Z,19.66
2022-10-22T12:54:55.852Z,19.65
2022-10-22T12:55:55.624Z,19.63